createdAt,value
2024-02-23T00:28:10.080Z,65.30
2024-02-23T00:38:46.079Z,65.20
2024-02-23T01:04:38.814Z,64.50
2024-02-23T01:09:08.230Z,64.00
2024-02-23T01:39:18.062Z,62.60
2024-02-23T01:43:57.362Z,62.60
2024-02-23T01:48:47.978Z,62.60
2024-02-23T01:53:30.662Z,62.50
2024-02-23T01:57:49.521Z,62.40
2024-02-23T02:07:30.070Z,62.10
2024-02-23T02:16:26.153Z,62.30
2024-02-23T02:25:51.468Z,62.20
2024-02-23T02:30:21.693Z,62.20
2024-02-23T02:34:48.845Z,62.00
2024-02-23T02:39:13.583Z,61.90
2024-02-23T02:54:44.183Z,61.90
2024-02-23T03:05:45.711Z,62.20
2024-02-23T03:26:36.705Z,63.50
2024-02-23T03:31:04.504Z,63.90
2024-02-23T03:46:52.395Z,64.70
2024-02-23T04:28:19.304Z,72.30
2024-02-23T04:33:20.294Z,73.40
2024-02-23T04:44:19.182Z,75.00
2024-02-23T04:48:37.551Z,75.40
2024-02-23T04:53:01.407Z,75.40
2024-02-23T04:57:12.827Z,75.40
2024-02-23T05:02:12.846Z,75.50
2024-02-23T05:07:15.421Z,75.60
2024-02-23T05:24:05.320Z,75.10
2024-02-23T05:33:45.172Z,74.70
2024-02-23T05:37:59.579Z,74.50
2024-02-23T05:42:09.220Z,74.40
2024-02-23T05:46:12.133Z,74.30
2024-02-23T05:50:18.273Z,74.00
2024-02-23T05:58:52.283Z,74.20
2024-02-23T06:03:04.700Z,74.10
2024-02-23T06:07:13.223Z,74.30
2024-02-23T06:16:08.647Z,74.10
2024-02-23T06:25:47.903Z,73.70
2024-02-23T06:30:36.534Z,73.30
2024-02-23T06:35:09.056Z,73.10
2024-02-23T06:39:19.990Z,73.00
2024-02-23T06:48:19.141Z,72.60
2024-02-23T06:52:49.472Z,72.20
2024-02-23T06:56:53.170Z,71.90
2024-02-23T07:00:59.597Z,72.00
2024-02-23T07:15:37.312Z,71.80
2024-02-23T07:20:07.542Z,71.60
2024-02-23T07:33:34.460Z,71.10
2024-02-23T07:38:02.531Z,71.00
2024-02-23T07:42:16.258Z,71.10
2024-02-23T07:46:38.423Z,71.00
2024-02-23T07:50:58.090Z,71.00
2024-02-23T08:00:03.077Z,71.40
2024-02-23T08:04:23.446Z,71.30
2024-02-23T08:08:28.796Z,71.30
2024-02-23T08:13:05.265Z,71.20
2024-02-23T08:17:45.334Z,71.10
2024-02-23T08:22:18.103Z,71.00
2024-02-23T08:32:27.815Z,70.80
2024-02-23T08:37:03.494Z,70.90
2024-02-23T08:46:21.146Z,70.80
2024-02-23T08:56:28.512Z,70.50
2024-02-23T09:01:02.579Z,70.40
2024-02-23T09:05:25.247Z,70.40
2024-02-23T09:09:31.194Z,70.20
2024-02-23T09:13:40.166Z,70.10
2024-02-23T09:23:02.857Z,69.90
2024-02-23T09:27:43.297Z,70.20
2024-02-23T09:32:07.271Z,70.30
2024-02-23T09:37:14.730Z,70.30
2024-02-23T09:41:27.990Z,70.20
2024-02-23T09:45:32.239Z,69.90
2024-02-23T09:50:28.040Z,69.90
2024-02-23T09:54:47.888Z,69.70
2024-02-23T10:03:48.648Z,68.70
2024-02-23T10:13:47.135Z,68.00
2024-02-23T10:33:56.700Z,68.60
2024-02-23T10:43:49.274Z,67.80
2024-02-23T10:53:20.484Z,67.20
2024-02-23T10:57:35.399Z,67.20
2024-02-23T11:02:04.829Z,67.00
2024-02-23T11:06:54.471Z,66.60
2024-02-23T11:16:49.090Z,65.50
2024-02-23T11:21:18.996Z,65.30
2024-02-23T11:31:25.921Z,64.70
2024-02-23T11:36:15.597Z,64.20
2024-02-23T11:45:56.719Z,64.60
2024-02-23T11:56:30.225Z,64.60
2024-02-23T12:00:53.133Z,64.80
2024-02-23T12:15:24.992Z,65.40
2024-02-23T12:20:28.715Z,65.40
2024-02-23T12:32:42.237Z,65.70
2024-02-23T12:37:13.965Z,65.90
2024-02-23T12:57:24.087Z,65.80
2024-02-23T13:01:53.251Z,66.00
2024-02-23T13:07:16.560Z,66.10
2024-02-23T13:11:36.970Z,66.20
2024-02-23T13:32:22.329Z,67.20
2024-02-23T13:38:19.046Z,68.00
2024-02-23T13:43:03.028Z,68.80
2024-02-23T13:47:36.215Z,68.90
2024-02-23T13:51:56.816Z,69.30
2024-02-23T13:56:32.080Z,70.20
2024-02-23T14:01:00.900Z,71.00
2024-02-23T14:05:04.777Z,71.60
2024-02-23T14:09:08.884Z,71.80
2024-02-23T14:13:15.093Z,72.40
2024-02-23T14:17:58.164Z,72.90
2024-02-23T14:22:11.119Z,73.50
2024-02-23T14:26:36.599Z,74.30
2024-02-23T14:30:41.905Z,74.80
2024-02-23T14:34:52.753Z,75.40
2024-02-23T14:39:00.203Z,75.80
2024-02-23T14:48:34.517Z,76.20
2024-02-23T14:51:12.126Z,76.10
2024-02-23T14:52:52.768Z,76.40
2024-02-23T14:57:12.407Z,77.00
2024-02-23T15:01:49.244Z,77.20
2024-02-23T15:05:52.564Z,77.70
2024-02-23T15:09:55.472Z,76.70
2024-02-23T15:14:02.094Z,76.20
2024-02-23T15:18:05.219Z,76.00
2024-02-23T15:22:09.762Z,76.10
2024-02-23T15:26:12.751Z,76.20
2024-02-23T15:30:16.619Z,76.20
2024-02-23T15:34:19.748Z,76.10
2024-02-23T15:38:26.070Z,76.00
2024-02-23T15:42:32.417Z,76.10
2024-02-23T15:46:36.630Z,76.10
2024-02-23T15:50:58.709Z,76.10
2024-02-23T15:55:14.726Z,76.10
2024-02-23T15:59:19.343Z,76.00
2024-02-23T16:03:25.205Z,75.90
2024-02-23T16:07:33.003Z,76.00
2024-02-23T16:11:47.629Z,75.90
2024-02-23T16:15:52.816Z,75.90
2024-02-23T16:20:04.848Z,75.80
2024-02-23T16:24:21.489Z,76.20
2024-02-23T16:28:25.052Z,76.70
2024-02-23T16:32:27.954Z,77.00
2024-02-23T16:36:31.334Z,77.20
2024-02-23T16:40:34.683Z,77.60
2024-02-23T16:44:37.938Z,78.00
2024-02-23T16:48:43.767Z,77.80
2024-02-23T16:53:14.595Z,77.70
2024-02-23T16:57:41.775Z,77.50
2024-02-23T17:01:45.879Z,77.20
2024-02-23T17:05:52.041Z,76.90
2024-02-23T17:09:59.209Z,76.80
2024-02-23T17:15:00.188Z,76.70
2024-02-23T17:19:18.505Z,76.60
2024-02-23T17:23:26.089Z,76.60
2024-02-23T17:27:32.405Z,76.60
2024-02-23T17:31:35.721Z,76.60
2024-02-23T17:35:41.473Z,76.10
2024-02-23T17:39:47.141Z,76.00
2024-02-23T17:43:50.358Z,76.00
2024-02-23T17:47:59.031Z,75.90
2024-02-23T17:52:07.954Z,75.80
2024-02-23T17:56:15.875Z,75.50
2024-02-23T18:00:21.276Z,75.40
2024-02-23T18:04:24.783Z,75.30
2024-02-23T18:08:28.074Z,75.30
2024-02-23T18:12:34.219Z,75.10
2024-02-23T18:16:40.342Z,75.20
2024-02-23T18:20:45.097Z,75.10
2024-02-23T18:24:48.525Z,75.10
2024-02-23T18:28:54.925Z,75.10
2024-02-23T18:33:14.936Z,75.10
2024-02-23T18:37:26.728Z,75.10
2024-02-23T18:41:35.463Z,75.10
2024-02-23T18:45:40.287Z,75.00
2024-02-23T18:49:47.971Z,75.00
2024-02-23T18:54:15.741Z,74.90
2024-02-23T18:58:55.961Z,74.90
2024-02-23T19:03:01.711Z,74.70
2024-02-23T19:12:43.141Z,74.30
2024-02-23T19:13:59.767Z,74.40
2024-02-23T19:16:54.170Z,74.20
2024-02-23T19:20:59.877Z,74.10
2024-02-23T19:25:05.825Z,74.00
2024-02-23T19:29:14.165Z,74.00
2024-02-23T19:33:19.877Z,74.00
2024-02-23T19:37:26.669Z,74.00
2024-02-23T19:41:48.612Z,74.10
2024-02-23T19:46:00.400Z,74.30
2024-02-23T19:50:13.730Z,74.50
2024-02-23T19:54:19.378Z,74.30
2024-02-23T19:58:30.162Z,74.10
2024-02-23T20:02:39.027Z,74.00
2024-02-23T20:06:46.653Z,74.10
2024-02-23T20:10:49.953Z,74.00
2024-02-23T20:14:54.496Z,74.20
2024-02-23T20:19:05.801Z,74.40
2024-02-23T20:23:11.398Z,74.40
2024-02-23T20:36:38.177Z,74.50
2024-02-23T20:38:48.681Z,74.40
2024-02-23T20:42:53.661Z,74.40
2024-02-23T20:53:34.232Z,74.70
2024-02-23T20:59:11.259Z,74.90
2024-02-23T21:03:54.531Z,74.80
2024-02-23T21:08:11.295Z,74.90
2024-02-23T21:12:16.271Z,74.60
2024-02-23T21:16:20.103Z,74.10
2024-02-23T21:20:24.073Z,73.10
2024-02-23T21:24:27.091Z,72.60
2024-02-23T21:28:30.176Z,72.30
2024-02-23T21:32:33.529Z,72.10
2024-02-23T21:36:36.807Z,71.80
2024-02-23T21:40:42.222Z,71.50
2024-02-23T21:44:45.533Z,71.20
2024-02-23T21:48:49.721Z,71.10
2024-02-23T21:52:52.792Z,71.00
2024-02-23T21:57:06.148Z,70.50
2024-02-23T22:01:13.819Z,70.30
2024-02-23T22:05:19.388Z,70.00
2024-02-23T22:09:22.511Z,69.40
2024-02-23T22:13:26.302Z,68.80
2024-02-23T22:17:31.683Z,68.30
2024-02-23T22:21:37.331Z,68.10
2024-02-23T22:25:40.572Z,67.70
2024-02-23T22:29:46.991Z,67.20
2024-02-23T22:33:55.193Z,67.20
2024-02-23T22:37:59.283Z,66.30
2024-02-23T22:42:12.742Z,66.50
2024-02-23T22:46:20.351Z,66.10
2024-02-23T22:50:23.508Z,66.00
2024-02-23T22:54:26.936Z,65.80
2024-02-23T22:58:32.275Z,65.90
2024-02-23T23:02:35.399Z,66.00
2024-02-23T23:06:39.509Z,66.10
2024-02-23T23:10:43.928Z,66.80
2024-02-23T23:14:47.117Z,67.40
2024-02-23T23:18:50.419Z,67.60
2024-02-23T23:22:54.466Z,68.00
2024-02-23T23:27:04.949Z,68.20
2024-02-23T23:31:17.742Z,68.70
2024-02-23T23:35:24.784Z,68.90
2024-02-23T23:39:28.005Z,69.20
2024-02-23T23:43:33.582Z,69.80
2024-02-23T23:47:39.772Z,70.10
2024-02-23T23:51:52.423Z,70.50
2024-02-23T23:55:59.898Z,70.60
